Aérodrome :
LOGIN :

S'inscrire | Disclaimer

   EN    FR    IT 

 










Légende :    VFR   VFR Marginal   IFR   IFR Intensif   IFR Très Intensif
Visi : 
Plafond : 
>= 8 km
>= 3000ft
5 à 8 km
1000 à 3000 ft
1500m à 5 km
500 à 1000 ft
800 à 1500m
200 à 500 ft
< 800m
< 200 ft
Symboles :   Orages  Brouillard  Fortes neiges  Fortes précipitations  Vent > 20 kt
SIGMETs :   Divers  Orages  Givrage  Turbulence  Onde Orograph.  Cendres Volcan.






- Altitude de l'aérodrome : 1036 ft
- Code IATA : ERF


EDDE - Erfurt

DERNIER METAR :
  • 151350Z AUTO VRB03KT CAVOK 28/11 Q1012 NOSIG

METARs EXPIRÉS :
  • 151320Z AUTO VRB02KT CAVOK 27/10 Q1013 NOSIG
  • 151250Z AUTO 14004KT 100V210 CAVOK 27/12 Q1013 NOSIG
  • 151220Z AUTO VRB04KT CAVOK 27/12 Q1013 NOSIG
  • 151150Z AUTO 24006KT 200V270 CAVOK 26/11 Q1013 NOSIG
  • 151120Z AUTO VRB04KT CAVOK 25/12 Q1013 NOSIG
  • 151050Z AUTO VRB06KT CAVOK 25/12 Q1014 NOSIG
  • 151020Z AUTO 14007KT 080V200 CAVOK 25/11 Q1014
  • 150950Z AUTO VRB03KT CAVOK 24/11 Q1014 NOSIG
  • 150920Z AUTO VRB04KT CAVOK 23/11 Q1014 NOSIG

TAF TAF EDDE
Valide du 15 à 12h jusqu'au 16 à 12h UTC


151100Z 1512/1612 14004KT CAVOK
BECMG 1512/1516 20006KT
TEMPO 1521/1603 SHRA BKN025CB
PROB30
TEMPO 1521/1602 23015G25KT TSRA
BECMG 1605/1609 24015G25KT



MET'MAP, la Météo Aéronautique d'un coup d'oeil ! - Copyright ORBIFLY Décembre 2007 - Disclaimer

ORBIFLY MET'MAP TEAM :

Programmation & Développement : Alexandra Zaïnal
Sur une idée originale de : Baudouin d'Aumeries
Soutien technique & logistique : Manuel Goepfert
Assistance : Marc-Olivier Méhu




SOURCES & CREDITS :

   NOAA